Time;durP1;ratioP1;P1;durP2;ratioP2;P2;SDS_P1;SDS_P2;PMS_P1;PMS_P2;Temp;Humidity;BMP_temperature;BMP_pressure;BME280_temperature;BME280_humidity;BME280_pressure;Samples;Min_cycle;Max_cycle;Signal;HPM_P1;HPM_P2
2022/03/31 00:00:31;;;;;;;8.32;7.15;;;16.80;43.50;;;;;;5087920;28;46924;-16
2022/03/31 00:02:58;;;;;;;7.65;6.85;;;16.80;44.00;;;;;;5087766;28;48072;-22
2022/03/31 00:05:24;;;;;;;8.43;7.15;;;16.80;43.50;;;;;;5087647;28;47294;-18
2022/03/31 00:07:51;;;;;;;7.13;6.03;;;16.80;43.40;;;;;;5087618;28;46915;-22
2022/03/31 00:10:24;;;;;;;8.73;7.03;;;16.80;43.50;;;;;;5087708;28;47047;-22
2022/03/31 00:12:51;;;;;;;8.13;7.05;;;16.80;43.40;;;;;;5087417;28;48373;-16
2022/03/31 00:15:18;;;;;;;9.10;6.80;;;16.80;43.30;;;;;;5087668;28;47183;-17
2022/03/31 00:17:45;;;;;;;9.27;7.53;;;16.80;43.40;;;;;;5087480;28;46823;-16
2022/03/31 00:20:11;;;;;;;6.88;6.18;;;16.80;43.40;;;;;;5087507;28;47272;-18
2022/03/31 00:22:38;;;;;;;8.40;7.28;;;16.70;43.30;;;;;;5086999;28;48764;-16
2022/03/31 00:25:06;;;;;;;7.95;7.15;;;16.70;43.30;;;;;;5087516;28;47473;-16
2022/03/31 00:27:34;;;;;;;7.32;6.53;;;16.70;43.40;;;;;;5087419;28;46915;-22
2022/03/31 00:30:01;;;;;;;8.18;6.50;;;16.70;43.40;;;;;;5087395;28;46890;-21
2022/03/31 00:32:27;;;;;;;7.88;7.07;;;16.70;43.40;;;;;;5087329;28;47931;-16
2022/03/31 00:34:54;;;;;;;7.63;6.57;;;16.70;43.30;;;;;;5087369;28;46941;-17
2022/03/31 00:37:21;;;;;;;7.28;6.45;;;16.70;43.30;;;;;;5087098;28;46873;-22
2022/03/31 00:39:48;;;;;;;8.23;7.07;;;16.70;43.40;;;;;;5087218;28;47032;-22
2022/03/31 00:42:15;;;;;;;7.85;6.30;;;16.70;44.00;;;;;;5087156;28;48681;-16
2022/03/31 00:44:44;;;;;;;8.48;7.22;;;16.70;43.30;;;;;;5087017;28;47415;-16
2022/03/31 00:47:10;;;;;;;7.68;6.70;;;16.60;43.40;;;;;;5087097;28;46822;-22
2022/03/31 00:49:37;;;;;;;7.93;6.75;;;16.60;43.40;;;;;;5087102;28;46919;-16
2022/03/31 00:52:05;;;;;;;7.90;6.95;;;16.60;43.30;;;;;;5087051;28;47902;-16
2022/03/31 00:54:32;;;;;;;7.63;6.60;;;16.60;43.40;;;;;;5086679;28;46908;-16
2022/03/31 00:56:59;;;;;;;10.25;7.35;;;16.60;43.30;;;;;;5087009;28;46792;-22
2022/03/31 00:59:26;;;;;;;9.38;7.50;;;16.60;43.40;;;;;;5087024;28;47271;-16
2022/03/31 01:01:54;;;;;;;8.23;7.38;;;16.60;43.40;;;;;;5086958;28;48015;-22
2022/03/31 01:04:20;;;;;;;8.13;6.82;;;16.60;43.50;;;;;;5086733;28;46771;-22
2022/03/31 01:06:47;;;;;;;8.32;7.38;;;16.60;43.50;;;;;;5086198;28;46848;-17
2022/03/31 01:09:14;;;;;;;8.35;6.88;;;16.60;43.50;;;;;;5086861;28;46794;-17
2022/03/31 01:11:41;;;;;;;7.78;6.60;;;16.60;43.40;;;;;;5086683;28;47962;-17
2022/03/31 01:14:07;;;;;;;8.10;6.90;;;16.50;43.40;;;;;;5086375;28;47173;-22
2022/03/31 01:16:34;;;;;;;9.65;7.47;;;16.60;43.50;;;;;;5086724;28;46858;-17
2022/03/31 01:19:05;;;;;;;7.50;6.70;;;16.50;43.40;;;;;;5086557;28;47168;-17
2022/03/31 01:21:32;;;;;;;9.50;7.03;;;16.50;43.40;;;;;;5086641;28;47091;-21
2022/03/31 01:24:00;;;;;;;9.13;7.00;;;16.50;43.40;;;;;;5086490;28;47025;-23
2022/03/31 01:26:27;;;;;;;8.40;6.78;;;16.50;43.40;;;;;;5086316;28;47000;-23
2022/03/31 01:28:53;;;;;;;8.07;7.15;;;16.50;43.40;;;;;;5086461;28;46862;-22
2022/03/31 01:31:21;;;;;;;8.02;6.88;;;16.50;43.40;;;;;;5086161;28;47976;-22
2022/03/31 01:33:47;;;;;;;9.52;6.95;;;16.50;43.40;;;;;;5086153;28;47590;-17
2022/03/31 01:36:14;;;;;;;7.60;6.80;;;16.50;43.40;;;;;;5086144;28;46898;-22
2022/03/31 01:38:41;;;;;;;7.32;6.32;;;16.50;43.40;;;;;;5086121;28;46904;-17
2022/03/31 01:41:09;;;;;;;8.48;7.00;;;16.50;43.40;;;;;;5086224;28;48817;-22
2022/03/31 01:43:35;;;;;;;7.78;6.50;;;16.50;43.50;;;;;;5085999;28;46856;-22
2022/03/31 01:46:02;;;;;;;7.70;6.65;;;16.50;43.50;;;;;;5086028;28;46857;-22
2022/03/31 01:48:30;;;;;;;7.97;6.93;;;16.50;43.50;;;;;;5086326;28;46950;-16
2022/03/31 01:50:57;;;;;;;8.70;6.90;;;16.40;43.50;;;;;;5086168;28;48791;-16
2022/03/31 01:53:23;;;;;;;9.18;7.05;;;16.40;43.50;;;;;;5085592;28;47331;-22
2022/03/31 01:55:50;;;;;;;8.02;7.22;;;16.40;43.50;;;;;;5086236;28;46814;-22
2022/03/31 01:58:18;;;;;;;8.10;7.00;;;16.40;43.40;;;;;;5086244;28;47100;-16
2022/03/31 02:00:45;;;;;;;8.05;6.50;;;16.40;43.30;;;;;;5085617;28;48833;-22
2022/03/31 02:03:12;;;;;;;8.85;6.82;;;16.40;43.20;;;;;;5085664;28;47097;-22
2022/03/31 02:05:38;;;;;;;8.25;7.15;;;16.40;43.40;;;;;;5085797;28;46917;-22
2022/03/31 02:08:05;;;;;;;7.50;6.63;;;16.40;43.40;;;;;;5085976;28;46903;-22
2022/03/31 02:10:32;;;;;;;8.25;7.05;;;16.40;43.40;;;;;;5085717;28;48678;-17
2022/03/31 02:12:59;;;;;;;6.97;6.18;;;16.40;43.40;;;;;;5085446;28;47125;-17
2022/03/31 02:15:29;;;;;;;7.85;6.57;;;16.40;43.40;;;;;;5085883;28;46894;-17
2022/03/31 02:17:55;;;;;;;7.53;6.70;;;16.40;43.40;;;;;;5084287;27;47319;-22
2022/03/31 02:20:22;;;;;;;7.68;6.63;;;16.40;43.40;;;;;;5085664;28;47862;-22
2022/03/31 02:22:49;;;;;;;10.07;7.10;;;16.40;43.50;;;;;;5085619;28;46909;-16
2022/03/31 02:25:16;;;;;;;8.98;7.13;;;16.40;43.50;;;;;;5085463;28;46892;-17
2022/03/31 02:27:42;;;;;;;7.97;6.80;;;16.40;43.50;;;;;;5085759;28;47291;-22
2022/03/31 02:30:09;;;;;;;8.15;6.72;;;16.30;43.50;;;;;;5085381;28;47793;-22
2022/03/31 02:32:37;;;;;;;8.63;7.00;;;16.30;43.50;;;;;;5085220;28;47423;-22
2022/03/31 02:35:05;;;;;;;8.85;7.05;;;16.30;43.50;;;;;;5085678;28;46823;-17
2022/03/31 02:37:32;;;;;;;8.27;6.68;;;16.30;43.50;;;;;;5085471;28;46981;-16
2022/03/31 02:39:59;;;;;;;8.07;6.45;;;16.30;43.60;;;;;;5085238;28;49060;-23
2022/03/31 02:42:26;;;;;;;7.47;6.68;;;16.30;43.50;;;;;;5085242;28;46977;-22
2022/03/31 02:44:52;;;;;;;9.05;7.43;;;16.30;43.50;;;;;;5085412;28;46878;-22
2022/03/31 02:47:19;;;;;;;7.47;6.35;;;16.30;43.60;;;;;;5085160;28;47311;-17
2022/03/31 02:49:47;;;;;;;8.80;7.15;;;16.30;43.60;;;;;;5085178;28;46975;-22
2022/03/31 02:52:14;;;;;;;8.32;6.95;;;16.30;43.50;;;;;;5085089;28;46751;-22
2022/03/31 02:57:25;;;;;;;7.72;6.88;;;16.30;43.50;;;;;;5082722;28;46898;-16
2022/03/31 02:59:52;;;;;;;7.25;6.47;;;16.30;43.50;;;;;;5085188;28;48380;-17
2022/03/31 03:02:18;;;;;;;7.35;6.50;;;16.30;43.50;;;;;;5085034;28;46926;-17
2022/03/31 03:04:46;;;;;;;8.05;6.78;;;16.30;43.50;;;;;;5084949;28;46884;-17
2022/03/31 03:07:13;;;;;;;8.55;6.60;;;16.30;43.50;;;;;;5085388;28;47105;-22
2022/03/31 03:09:40;;;;;;;8.30;7.50;;;16.20;43.50;;;;;;5085129;28;47922;-22
2022/03/31 03:12:09;;;;;;;7.68;6.40;;;16.20;43.60;;;;;;5084735;28;46908;-16
2022/03/31 03:14:35;;;;;;;7.07;6.38;;;16.30;43.50;;;;;;5085245;28;46949;-22
2022/03/31 03:17:02;;;;;;;8.70;6.95;;;16.20;43.50;;;;;;5085194;28;47260;-22
2022/03/31 03:19:29;;;;;;;7.07;6.00;;;16.20;43.50;;;;;;5084946;28;48879;-22
2022/03/31 03:21:57;;;;;;;8.77;6.43;;;16.20;43.40;;;;;;5084828;28;47268;-18
2022/03/31 03:24:23;;;;;;;8.20;6.38;;;16.20;43.50;;;;;;5084973;28;46870;-17
2022/03/31 03:26:50;;;;;;;8.15;6.70;;;16.20;43.40;;;;;;5085067;28;47299;-16
2022/03/31 03:29:17;;;;;;;8.20;6.50;;;16.20;43.40;;;;;;5086426;28;47851;-22
2022/03/31 03:31:43;;;;;;;8.52;6.97;;;16.20;43.40;;;;;;5088347;28;46897;-22
2022/03/31 03:34:10;;;;;;;8.45;6.78;;;16.20;43.40;;;;;;5088201;28;46872;-22
2022/03/31 03:36:37;;;;;;;9.20;6.88;;;16.20;43.50;;;;;;5088501;28;47274;-22
2022/03/31 03:39:06;;;;;;;8.68;7.03;;;16.20;43.50;;;;;;5088160;28;47138;-17
2022/03/31 03:41:32;;;;;;;8.63;7.30;;;16.20;43.40;;;;;;5088174;28;46894;-22
2022/03/31 03:43:59;;;;;;;8.93;6.60;;;16.20;43.40;;;;;;5087800;28;46844;-17
2022/03/31 03:46:26;;;;;;;7.90;6.80;;;16.20;43.40;;;;;;5088129;28;47297;-22
2022/03/31 03:48:53;;;;;;;8.18;6.90;;;16.20;43.50;;;;;;5087718;28;47037;-22
2022/03/31 03:51:19;;;;;;;8.55;6.40;;;16.20;43.50;;;;;;5088839;27;46996;-18
2022/03/31 03:53:46;;;;;;;8.73;7.15;;;16.10;43.40;;;;;;5087768;28;46906;-22
2022/03/31 03:56:14;;;;;;;7.18;6.43;;;16.10;43.40;;;;;;5088305;28;46887;-18
2022/03/31 03:58:41;;;;;;;8.68;6.85;;;16.10;43.50;;;;;;5087664;28;48108;-17
2022/03/31 04:01:08;;;;;;;7.68;6.68;;;16.10;43.50;;;;;;5087575;28;47450;-23
2022/03/31 04:03:34;;;;;;;9.02;7.55;;;16.10;43.60;;;;;;5087526;28;46941;-22
2022/03/31 04:06:01;;;;;;;8.93;6.95;;;16.10;43.50;;;;;;5088121;28;47163;-22
2022/03/31 04:08:28;;;;;;;8.15;6.95;;;16.10;43.50;;;;;;5087616;28;48011;-16
2022/03/31 04:10:55;;;;;;;9.10;6.97;;;16.10;43.50;;;;;;5087433;28;47006;-22
2022/03/31 04:13:23;;;;;;;8.60;6.97;;;16.10;43.50;;;;;;5087144;28;46786;-16
2022/03/31 04:15:50;;;;;;;10.65;7.45;;;16.10;43.50;;;;;;5087629;28;46943;-22
2022/03/31 04:18:16;;;;;;;9.27;6.72;;;16.10;43.50;;;;;;5087254;28;46950;-16
2022/03/31 04:20:43;;;;;;;9.93;7.15;;;16.10;43.60;;;;;;5087609;28;47095;-17
2022/03/31 04:23:10;;;;;;;8.23;6.55;;;16.10;43.60;;;;;;5087180;28;46909;-16
2022/03/31 04:25:37;;;;;;;8.45;7.05;;;16.00;43.50;;;;;;5087411;28;46899;-22
2022/03/31 04:28:04;;;;;;;8.65;6.45;;;16.00;43.60;;;;;;5087313;28;48541;-17
2022/03/31 04:30:32;;;;;;;7.88;6.90;;;16.00;43.50;;;;;;5087415;28;47002;-16
2022/03/31 04:32:59;;;;;;;8.95;7.38;;;16.00;43.60;;;;;;5087297;28;46974;-22
2022/03/31 04:35:26;;;;;;;9.15;7.22;;;16.00;43.60;;;;;;5087494;28;46843;-22
2022/03/31 04:37:52;;;;;;;7.65;6.70;;;16.00;43.60;;;;;;5086853;28;46919;-22
2022/03/31 04:40:19;;;;;;;8.15;6.82;;;16.00;43.60;;;;;;5086107;27;47005;-22
2022/03/31 04:42:46;;;;;;;8.10;6.78;;;16.00;43.60;;;;;;5086819;28;46895;-16
2022/03/31 04:45:13;;;;;;;8.10;6.63;;;16.00;43.60;;;;;;5087457;28;46878;-17
2022/03/31 04:47:41;;;;;;;8.60;7.00;;;16.00;43.50;;;;;;5086759;28;47071;-22
2022/03/31 04:50:08;;;;;;;8.98;6.68;;;16.00;43.60;;;;;;5087114;28;47259;-22
2022/03/31 04:52:35;;;;;;;8.60;6.78;;;16.00;43.60;;;;;;5086828;28;47005;-23
2022/03/31 04:55:02;;;;;;;7.75;6.95;;;16.00;43.60;;;;;;5087177;28;47119;-23
2022/03/31 04:57:28;;;;;;;9.02;6.80;;;16.00;43.60;;;;;;5086770;28;46934;-23
2022/03/31 04:59:55;;;;;;;8.75;6.80;;;16.00;43.50;;;;;;5086748;28;47452;-22
2022/03/31 05:02:22;;;;;;;8.45;6.90;;;16.00;43.60;;;;;;5086844;28;46969;-18
2022/03/31 05:04:50;;;;;;;7.95;6.30;;;16.00;43.50;;;;;;5086917;28;46910;-17
2022/03/31 05:07:16;;;;;;;6.95;6.15;;;16.00;43.50;;;;;;5086617;28;49055;-23
2022/03/31 05:09:44;;;;;;;9.70;6.75;;;16.00;43.60;;;;;;5086742;28;46982;-16
2022/03/31 05:12:12;;;;;;;8.45;6.70;;;15.90;43.60;;;;;;5086517;28;46893;-16
2022/03/31 05:14:39;;;;;;;8.35;6.60;;;16.00;43.60;;;;;;5086958;28;46831;-22
2022/03/31 05:17:06;;;;;;;7.90;6.63;;;16.00;43.70;;;;;;5086799;28;49062;-22
2022/03/31 05:19:33;;;;;;;8.52;7.45;;;15.90;43.60;;;;;;5086345;28;47819;-16
2022/03/31 05:22:01;;;;;;;8.13;6.60;;;15.90;43.70;;;;;;5086620;28;46933;-22
2022/03/31 05:24:28;;;;;;;8.20;6.80;;;15.90;43.60;;;;;;5086501;28;46827;-22
2022/03/31 05:26:54;;;;;;;7.97;6.38;;;15.90;43.70;;;;;;5086501;28;47954;-18
2022/03/31 05:29:22;;;;;;;8.95;6.97;;;15.90;43.50;;;;;;5085796;28;46867;-18
2022/03/31 05:31:49;;;;;;;8.75;7.05;;;15.90;43.60;;;;;;5086291;28;46957;-22
2022/03/31 05:34:16;;;;;;;9.18;7.22;;;15.90;43.70;;;;;;5086233;28;46842;-16
2022/03/31 05:36:43;;;;;;;9.40;7.07;;;15.90;43.70;;;;;;5086569;28;48921;-23
2022/03/31 05:39:11;;;;;;;10.15;6.90;;;15.90;43.70;;;;;;5085935;28;46877;-15
2022/03/31 05:41:38;;;;;;;8.85;7.28;;;15.90;43.60;;;;;;5084851;27;46976;-15
2022/03/31 05:44:05;;;;;;;8.75;7.22;;;15.90;43.60;;;;;;5085276;28;47124;-20
2022/03/31 05:46:32;;;;;;;7.63;6.85;;;15.90;43.70;;;;;;5084074;28;47946;-15
2022/03/31 05:49:00;;;;;;;8.05;6.80;;;15.90;43.60;;;;;;5084478;28;47202;-18
2022/03/31 05:51:26;;;;;;;8.35;6.30;;;15.90;43.60;;;;;;5084398;27;46930;-23
2022/03/31 05:53:54;;;;;;;8.80;6.78;;;15.90;44.20;;;;;;5084602;28;47266;-23
2022/03/31 05:56:22;;;;;;;8.70;7.15;;;15.90;43.70;;;;;;5084514;28;49058;-22
2022/03/31 05:58:50;;;;;;;7.60;6.30;;;15.90;43.70;;;;;;5084473;28;47037;-17
2022/03/31 06:01:17;;;;;;;7.80;6.53;;;15.90;43.60;;;;;;5085264;28;46934;-20
2022/03/31 06:03:44;;;;;;;10.35;7.00;;;15.80;43.70;;;;;;5085578;28;47297;-15
2022/03/31 06:06:11;;;;;;;9.25;6.75;;;15.90;43.70;;;;;;5085917;28;49115;-16
2022/03/31 06:08:38;;;;;;;7.80;6.43;;;15.80;43.60;;;;;;5085400;28;47240;-21
2022/03/31 06:11:04;;;;;;;8.57;6.90;;;15.90;43.80;;;;;;5085788;28;46910;-17
2022/03/31 06:13:32;;;;;;;9.18;6.68;;;15.90;43.80;;;;;;5085306;28;47285;-22
2022/03/31 06:15:59;;;;;;;8.02;6.78;;;15.80;43.80;;;;;;5085621;28;47815;-16
2022/03/31 06:18:26;;;;;;;9.63;7.22;;;15.80;43.70;;;;;;5085117;28;47573;-22
2022/03/31 06:20:53;;;;;;;8.40;6.65;;;15.80;43.90;;;;;;5085965;28;46882;-21
2022/03/31 06:23:20;;;;;;;7.25;6.38;;;15.80;43.90;;;;;;5085356;28;46834;-16
2022/03/31 06:25:46;;;;;;;7.95;6.68;;;15.80;43.70;;;;;;5085382;28;48079;-16
2022/03/31 06:28:14;;;;;;;9.13;6.78;;;15.80;43.70;;;;;;5085136;28;46892;-16
2022/03/31 06:30:42;;;;;;;7.70;5.70;;;15.80;43.70;;;;;;5085478;28;46831;-15
2022/03/31 06:33:09;;;;;;;7.50;6.70;;;15.90;43.60;;;;;;5085105;28;46839;-22
2022/03/31 06:35:36;;;;;;;9.13;7.03;;;15.90;43.70;;;;;;5085624;28;47793;-21
2022/03/31 06:38:03;;;;;;;9.13;6.53;;;15.80;43.60;;;;;;5085150;28;46981;-16
2022/03/31 06:40:31;;;;;;;8.23;6.13;;;15.80;43.60;;;;;;5084192;28;47118;-16
2022/03/31 06:42:58;;;;;;;9.73;6.75;;;15.80;43.70;;;;;;5085258;28;46958;-21
2022/03/31 06:45:25;;;;;;;8.85;6.57;;;15.80;43.70;;;;;;5084913;28;49021;-22
2022/03/31 06:47:55;;;;;;;7.93;6.43;;;15.80;43.60;;;;;;5084833;28;46984;-22
2022/03/31 06:50:21;;;;;;;8.43;6.47;;;15.80;43.70;;;;;;5084696;28;46874;-22
2022/03/31 06:52:48;;;;;;;14.05;9.75;;;15.80;43.70;;;;;;5085028;28;46914;-21
2022/03/31 06:55:15;;;;;;;15.75;9.73;;;15.80;45.30;;;;;;5084022;28;48848;-16
2022/03/31 06:57:42;;;;;;;12.57;8.55;;;15.80;45.20;;;;;;5084317;28;46911;-22
2022/03/31 07:00:09;;;;;;;12.27;7.80;;;15.80;44.70;;;;;;5084031;28;46933;-16
2022/03/31 07:02:36;;;;;;;13.93;7.40;;;15.80;44.60;;;;;;5083718;28;46990;-16
2022/03/31 07:05:05;;;;;;;10.00;7.78;;;15.90;44.70;;;;;;5087277;28;48974;-16
2022/03/31 07:07:31;;;;;;;20.80;12.05;;;15.90;44.70;;;;;;5087815;28;46925;-21
2022/03/31 07:10:00;;;;;;;14.60;10.27;;;15.90;45.40;;;;;;5088011;28;46919;-22
2022/03/31 07:12:27;;;;;;;15.75;9.45;;;15.90;45.10;;;;;;5088111;28;47354;-21
2022/03/31 07:14:53;;;;;;;14.55;9.55;;;15.90;44.90;;;;;;5088107;28;47853;-20
2022/03/31 07:17:21;;;;;;;13.48;9.38;;;15.90;44.80;;;;;;5087363;28;46871;-17
2022/03/31 07:19:47;;;;;;;17.35;9.57;;;15.90;44.90;;;;;;5087562;28;46984;-22
2022/03/31 07:22:15;;;;;;;19.00;9.10;;;15.90;45.00;;;;;;5087716;28;47171;-22
2022/03/31 07:24:42;;;;;;;15.00;9.23;;;16.00;44.80;;;;;;5087818;28;48044;-16
2022/03/31 07:27:09;;;;;;;10.75;8.55;;;16.00;44.70;;;;;;5087476;28;46780;-21
2022/03/31 07:29:36;;;;;;;13.65;8.43;;;16.00;44.60;;;;;;5086857;28;46813;-17
2022/03/31 07:32:03;;;;;;;12.13;8.18;;;16.00;44.70;;;;;;5087319;28;47273;-22
2022/03/31 07:34:30;;;;;;;11.75;8.27;;;16.00;44.40;;;;;;5086940;28;47838;-22
2022/03/31 07:36:56;;;;;;;12.60;8.20;;;16.00;44.40;;;;;;5087728;28;47247;-22
2022/03/31 07:39:25;;;;;;;15.35;8.38;;;16.00;44.40;;;;;;5086951;28;46878;-17
2022/03/31 07:41:51;;;;;;;11.02;7.75;;;16.00;44.50;;;;;;5087395;28;46889;-16
2022/03/31 07:44:18;;;;;;;11.10;6.80;;;16.00;44.60;;;;;;5086717;28;48144;-16
2022/03/31 07:46:46;;;;;;;13.52;8.48;;;16.00;44.40;;;;;;5087090;28;47256;-22
2022/03/31 07:49:14;;;;;;;12.32;8.07;;;16.00;44.40;;;;;;5085545;28;47032;-16
2022/03/31 07:51:40;;;;;;;11.45;7.50;;;16.00;44.50;;;;;;5087171;28;47304;-22
2022/03/31 07:54:08;;;;;;;12.32;7.70;;;16.00;44.60;;;;;;5086650;27;47061;-16
2022/03/31 07:56:36;;;;;;;10.20;7.13;;;16.10;44.60;;;;;;5086494;28;46995;-16
2022/03/31 07:59:03;;;;;;;15.23;7.60;;;16.10;44.40;;;;;;5087093;28;46964;-16
2022/03/31 08:01:30;;;;;;;13.25;7.38;;;16.10;44.50;;;;;;5086745;28;46885;-23
2022/03/31 08:03:57;;;;;;;12.77;7.72;;;16.10;44.70;;;;;;5086700;28;49009;-22
2022/03/31 08:06:24;;;;;;;12.48;7.13;;;16.10;44.50;;;;;;5086386;28;47107;-16
2022/03/31 08:08:51;;;;;;;10.20;7.10;;;16.10;44.30;;;;;;5087140;28;46910;-17
2022/03/31 08:11:18;;;;;;;14.43;7.20;;;16.10;44.30;;;;;;5085831;28;46926;-16
2022/03/31 08:13:46;;;;;;;11.45;6.78;;;16.10;44.60;;;;;;5086727;28;49055;-16
2022/03/31 08:16:13;;;;;;;11.60;7.28;;;16.10;44.40;;;;;;5086205;28;46897;-16
2022/03/31 08:18:39;;;;;;;11.45;7.28;;;16.10;44.50;;;;;;5086695;28;46906;-22
2022/03/31 08:21:06;;;;;;;11.57;7.13;;;16.10;44.70;;;;;;5086583;28;47460;-21
2022/03/31 08:23:33;;;;;;;15.65;7.40;;;16.10;44.60;;;;;;5086768;28;48045;-21
2022/03/31 08:26:00;;;;;;;11.10;6.60;;;16.10;44.60;;;;;;5086134;28;47220;-16
2022/03/31 08:28:30;;;;;;;7.85;5.70;;;16.10;44.60;;;;;;5086561;28;47292;-21
2022/03/31 08:30:58;;;;;;;12.60;5.60;;;16.10;45.00;;;;;;5085428;28;47140;-16
2022/03/31 08:33:25;;;;;;;13.77;6.32;;;16.10;44.40;;;;;;5086751;28;47838;-21
2022/03/31 08:35:52;;;;;;;20.52;10.10;;;16.10;44.90;;;;;;5086684;28;46866;-17
2022/03/31 08:38:19;;;;;;;18.10;9.80;;;16.10;46.30;;;;;;5086621;28;46851;-16
2022/03/31 08:40:45;;;;;;;17.17;9.38;;;16.10;46.00;;;;;;5086926;28;47112;-16
2022/03/31 08:43:12;;;;;;;16.05;8.75;;;16.10;46.20;;;;;;5086087;28;47840;-16
2022/03/31 08:45:39;;;;;;;16.83;8.90;;;16.10;45.90;;;;;;5084943;28;47048;-17
2022/03/31 08:48:07;;;;;;;21.02;9.70;;;16.10;45.60;;;;;;5086404;28;46850;-21
2022/03/31 08:50:34;;;;;;;18.05;10.00;;;16.10;47.10;;;;;;5087085;28;47005;-17
2022/03/31 08:53:01;;;;;;;22.08;11.80;;;16.10;46.90;;;;;;5086175;28;47802;-16
2022/03/31 08:55:28;;;;;;;16.77;9.88;;;16.10;47.00;;;;;;5086860;28;47048;-21
2022/03/31 08:57:55;;;;;;;18.77;10.13;;;16.10;46.60;;;;;;5087358;28;46861;-16
2022/03/31 09:00:22;;;;;;;16.75;9.25;;;16.10;46.40;;;;;;5086961;28;46893;-22
2022/03/31 09:02:57;;;;;;;21.45;9.82;;;16.10;46.40;;;;;;5086269;28;46946;-16
2022/03/31 09:05:25;;;;;;;14.82;8.77;;;16.10;45.90;;;;;;5086119;28;47437;-16
2022/03/31 09:07:53;;;;;;;14.25;9.32;;;16.10;45.80;;;;;;5081041;28;47063;-16
2022/03/31 09:10:30;;;;;;;13.98;8.82;;;16.10;46.10;;;;;;5084989;27;47254;-22
2022/03/31 09:12:57;;;;;;;23.42;12.07;;;16.10;46.10;;;;;;5082431;28;47832;-16
2022/03/31 09:15:24;;;;;;;21.08;12.05;;;16.10;47.80;;;;;;5084024;28;47264;-21
2022/03/31 09:17:55;;;;;;;26.38;13.90;;;16.10;49.20;;;;;;5084658;28;47028;-22
2022/03/31 09:20:22;;;;;;;25.63;14.80;;;16.10;50.00;;;;;;5085923;28;46892;-21
2022/03/31 09:22:50;;;;;;;26.80;15.15;;;16.10;50.20;;;;;;5085283;28;49128;-16
2022/03/31 09:25:27;;;;;;;24.55;14.80;;;16.00;51.00;;;;;;5085709;28;46882;-22
2022/03/31 09:27:53;;;;;;;25.35;14.93;;;16.00;51.20;;;;;;5084360;28;47032;-22
2022/03/31 09:30:20;;;;;;;27.38;15.02;;;16.00;51.30;;;;;;5085269;28;46930;-17
2022/03/31 09:32:48;;;;;;;26.95;14.48;;;16.00;51.50;;;;;;5085558;28;48228;-21
2022/03/31 09:35:17;;;;;;;22.42;14.13;;;16.00;51.70;;;;;;5084831;28;46961;-16
2022/03/31 09:37:45;;;;;;;23.13;14.73;;;16.00;51.50;;;;;;5085118;28;46866;-16
2022/03/31 09:40:13;;;;;;;26.38;13.75;;;15.90;51.80;;;;;;5085141;28;46886;-17
2022/03/31 09:42:39;;;;;;;20.38;13.20;;;15.90;52.10;;;;;;5084875;28;47810;-21
2022/03/31 09:45:08;;;;;;;20.13;11.73;;;15.90;52.40;;;;;;5085011;28;47395;-21
2022/03/31 09:47:43;;;;;;;19.58;11.30;;;15.90;52.60;;;;;;5085395;28;46982;-15
2022/03/31 09:50:10;;;;;;;18.88;10.63;;;15.90;53.00;;;;;;5085465;28;46870;-16
2022/03/31 09:52:37;;;;;;;18.23;10.90;;;15.90;53.10;;;;;;5077257;28;48797;-16
2022/03/31 09:55:04;;;;;;;17.42;10.77;;;15.90;53.10;;;;;;5069597;28;47420;-21
2022/03/31 09:57:32;;;;;;;18.02;10.43;;;15.90;53.50;;;;;;5085026;28;47156;-17
2022/03/31 09:59:59;;;;;;;17.88;10.07;;;15.90;53.50;;;;;;5085479;28;47069;-21
2022/03/31 10:02:26;;;;;;;16.80;9.32;;;15.90;53.70;;;;;;5084531;28;49011;-21
2022/03/31 10:04:54;;;;;;;17.08;9.70;;;15.90;53.70;;;;;;5085482;28;47092;-16
2022/03/31 10:07:22;;;;;;;15.55;9.32;;;15.90;53.90;;;;;;5085049;28;46910;-21
2022/03/31 10:09:48;;;;;;;14.82;9.25;;;15.90;53.70;;;;;;5085356;28;46894;-16
2022/03/31 10:12:18;;;;;;;14.90;8.80;;;15.90;53.60;;;;;;5084417;28;49339;-16
2022/03/31 10:14:49;;;;;;;12.85;8.00;;;15.90;54.10;;;;;;5085121;28;47136;-21
2022/03/31 10:17:16;;;;;;;12.38;7.78;;;16.00;53.90;;;;;;5084457;28;47102;-22
2022/03/31 10:19:44;;;;;;;12.48;7.65;;;16.00;54.10;;;;;;5084780;28;46979;-22
2022/03/31 10:24:41;;;;;;;13.50;7.05;;;15.90;53.70;;;;;;5084608;28;47779;-22
2022/03/31 10:24:59;;;;;;;10.88;6.50;;;16.00;54.10;;;;;;5084334;28;46817;-16
2022/03/31 10:27:27;;;;;;;13.13;6.88;;;16.00;53.90;;;;;;5084811;28;46815;-16
2022/03/31 10:29:55;;;;;;;12.15;6.97;;;16.00;53.60;;;;;;5085315;28;47306;-21
2022/03/31 10:32:23;;;;;;;10.48;6.13;;;16.00;53.20;;;;;;5084950;28;49269;-21
2022/03/31 10:34:50;;;;;;;11.75;6.30;;;16.10;53.30;;;;;;5085242;28;46835;-17
2022/03/31 10:37:18;;;;;;;10.38;5.90;;;16.10;53.20;;;;;;5085114;28;47009;-17
2022/03/31 10:39:55;;;;;;;10.98;6.35;;;16.10;53.00;;;;;;5088127;28;47257;-22
2022/03/31 10:42:22;;;;;;;10.88;5.80;;;16.10;52.70;;;;;;5088448;28;47933;-21
2022/03/31 10:44:48;;;;;;;8.90;5.45;;;16.10;52.60;;;;;;5088911;28;46824;-22
2022/03/31 10:47:17;;;;;;;8.35;5.15;;;16.10;52.80;;;;;;5086621;28;47015;-22
2022/03/31 10:49:52;;;;;;;10.85;5.50;;;16.10;52.50;;;;;;5088915;28;47089;-17
2022/03/31 10:52:23;;;;;;;10.35;4.65;;;16.10;52.30;;;;;;5088287;28;47072;-22
2022/03/31 10:54:50;;;;;;;7.18;5.00;;;16.10;51.90;;;;;;5087951;28;46970;-22
2022/03/31 10:57:18;;;;;;;8.88;4.82;;;16.10;52.20;;;;;;5088265;28;46832;-15
2022/03/31 10:59:47;;;;;;;6.90;3.90;;;16.10;51.60;;;;;;5089009;28;47335;-16
2022/03/31 11:02:16;;;;;;;7.85;4.75;;;16.10;51.60;;;;;;5088151;28;47870;-15
2022/03/31 11:04:44;;;;;;;8.30;4.32;;;16.10;51.40;;;;;;5088342;28;47105;-22
2022/03/31 11:07:14;;;;;;;6.35;4.22;;;16.10;51.10;;;;;;5088710;28;46892;-16
2022/03/31 11:09:42;;;;;;;7.63;4.07;;;16.10;51.50;;;;;;5088906;28;46828;-22
2022/03/31 11:12:09;;;;;;;6.30;3.67;;;16.10;51.20;;;;;;5088148;28;49088;-16
2022/03/31 11:14:36;;;;;;;8.10;3.80;;;16.10;50.90;;;;;;5088228;28;46923;-17
2022/03/31 11:17:03;;;;;;;7.00;3.75;;;16.10;51.40;;;;;;5088040;28;46890;-22
2022/03/31 11:19:37;;;;;;;6.70;3.65;;;16.10;51.10;;;;;;5087377;27;47085;-17
2022/03/31 11:22:03;;;;;;;5.50;3.47;;;16.10;51.20;;;;;;5086771;28;48255;-16
2022/03/31 11:24:30;;;;;;;4.97;3.50;;;16.10;50.70;;;;;;5086900;28;46904;-21
2022/03/31 11:26:57;;;;;;;5.82;3.65;;;16.20;50.60;;;;;;5086885;28;46982;-20
2022/03/31 11:29:26;;;;;;;5.53;3.42;;;16.20;51.00;;;;;;5087429;28;47277;-22
2022/03/31 11:31:54;;;;;;;6.93;3.42;;;16.20;50.30;;;;;;5086449;28;48128;-21
2022/03/31 11:34:22;;;;;;;6.35;3.47;;;16.20;51.00;;;;;;5087456;28;46929;-16
2022/03/31 11:36:51;;;;;;;4.80;2.97;;;16.20;50.90;;;;;;5088115;28;46915;-21
2022/03/31 11:39:18;;;;;;;4.82;3.15;;;16.20;50.90;;;;;;5088322;28;46936;-21
2022/03/31 11:41:45;;;;;;;7.43;3.25;;;16.20;51.00;;;;;;5088055;28;48079;-17
2022/03/31 11:44:12;;;;;;;4.43;2.92;;;16.20;50.60;;;;;;5087974;28;46883;-22
2022/03/31 11:46:40;;;;;;;7.35;3.42;;;16.20;50.70;;;;;;5087946;28;46966;-21
2022/03/31 11:49:14;;;;;;;5.13;3.50;;;16.20;50.60;;;;;;5087306;27;47149;-16
2022/03/31 11:51:41;;;;;;;5.20;3.00;;;16.20;50.70;;;;;;5087590;28;46963;-21
2022/03/31 11:54:10;;;;;;;4.53;3.13;;;16.20;51.00;;;;;;5087536;28;46885;-16
2022/03/31 11:56:36;;;;;;;3.47;2.65;;;16.20;50.60;;;;;;5087729;28;46994;-16
2022/03/31 11:59:05;;;;;;;4.28;2.70;;;16.20;50.70;;;;;;5088446;28;46745;-21
2022/03/31 12:01:33;;;;;;;5.15;3.20;;;16.20;50.70;;;;;;5087465;28;48094;-18
2022/03/31 12:04:00;;;;;;;4.55;3.03;;;16.20;50.60;;;;;;5087310;28;46795;-16
2022/03/31 12:06:28;;;;;;;6.00;3.28;;;16.20;50.60;;;;;;5087510;28;46795;-17
2022/03/31 12:08:55;;;;;;;5.53;2.80;;;16.20;50.80;;;;;;5087576;28;47328;-22
2022/03/31 12:11:25;;;;;;;5.78;3.22;;;16.20;50.40;;;;;;5087681;28;47034;-22
2022/03/31 12:13:53;;;;;;;3.47;2.65;;;16.20;50.60;;;;;;5087278;28;47164;-21
2022/03/31 12:16:20;;;;;;;5.28;2.92;;;16.20;50.20;;;;;;5087400;28;46945;-16
2022/03/31 12:18:53;;;;;;;3.83;2.83;;;16.20;50.30;;;;;;5087644;28;46843;-16
2022/03/31 12:21:20;;;;;;;4.30;3.10;;;16.20;50.30;;;;;;5087177;28;46936;-22
2022/03/31 12:23:47;;;;;;;5.60;3.38;;;16.20;50.20;;;;;;5087035;28;47412;-16
2022/03/31 12:26:16;;;;;;;4.68;2.85;;;16.20;50.10;;;;;;5086906;28;46795;-16
2022/03/31 12:28:44;;;;;;;4.50;2.67;;;16.20;49.90;;;;;;5087259;28;46829;-21
2022/03/31 12:31:20;;;;;;;4.93;3.22;;;16.20;49.90;;;;;;5087327;28;48796;-16
2022/03/31 12:33:48;;;;;;;5.25;3.28;;;16.20;49.80;;;;;;5086820;28;46915;-21
2022/03/31 12:36:15;;;;;;;5.55;3.28;;;16.20;49.80;;;;;;5086859;28;46796;-17
2022/03/31 12:38:44;;;;;;;6.70;3.30;;;16.20;49.80;;;;;;5087251;28;47028;-17
2022/03/31 12:41:16;;;;;;;4.50;3.03;;;16.20;49.80;;;;;;5086993;28;47164;-22
2022/03/31 12:43:55;;;;;;;3.75;3.38;;;16.20;49.60;;;;;;5086666;28;46797;-16
2022/03/31 12:46:22;;;;;;;4.60;3.22;;;16.20;50.50;;;;;;5086908;28;46921;-21